createdAt,value
2023-01-19T00:00:40.566Z,33.33
2023-01-19T00:03:16.427Z,29.30
2023-01-19T00:05:44.770Z,32.92
2023-01-19T00:08:15.488Z,34.28
2023-01-19T00:10:45.223Z,31.20
2023-01-19T00:13:12.951Z,31.25
2023-01-19T00:15:40.112Z,32.85
2023-01-19T00:18:09.034Z,29.52
2023-01-19T00:20:36.953Z,33.03
2023-01-19T00:23:05.009Z,33.63
2023-01-19T00:25:32.330Z,34.58
2023-01-19T00:28:01.534Z,32.47
2023-01-19T00:30:29.643Z,33.05
2023-01-19T00:32:56.786Z,31.33
2023-01-19T00:35:24.038Z,31.67
2023-01-19T00:37:51.201Z,34.38
2023-01-19T00:40:18.545Z,33.75
2023-01-19T00:42:48.437Z,32.63
2023-01-19T00:45:21.602Z,32.30
2023-01-19T00:47:54.877Z,30.45
2023-01-19T00:50:22.016Z,31.08
2023-01-19T00:52:49.653Z,30.33
2023-01-19T00:55:17.007Z,28.65
2023-01-19T00:57:44.205Z,29.42
2023-01-19T01:00:14.389Z,30.88
2023-01-19T01:02:43.248Z,27.75
2023-01-19T01:05:11.133Z,33.15
2023-01-19T01:07:42.134Z,32.78
2023-01-19T01:10:12.034Z,30.25
2023-01-19T01:12:39.666Z,31.20
2023-01-19T01:15:09.462Z,32.25
2023-01-19T01:17:37.171Z,32.40
2023-01-19T01:20:05.205Z,30.40
2023-01-19T01:22:32.262Z,35.75
2023-01-19T01:25:00.121Z,36.30
2023-01-19T01:27:27.351Z,35.08
2023-01-19T01:29:54.488Z,34.97
2023-01-19T01:32:21.536Z,34.65
2023-01-19T01:34:48.623Z,32.65
2023-01-19T01:37:15.685Z,34.22
2023-01-19T01:39:42.763Z,35.83
2023-01-19T01:42:17.996Z,31.50
2023-01-19T01:44:54.209Z,30.63
2023-01-19T01:47:55.694Z,33.95
2023-01-19T01:50:25.320Z,30.55
2023-01-19T01:53:06.804Z,33.83
2023-01-19T01:55:46.975Z,32.97
2023-01-19T01:58:16.539Z,33.67
2023-01-19T02:01:02.340Z,33.10
2023-01-19T02:03:29.814Z,35.15
2023-01-19T02:06:01.883Z,33.95
2023-01-19T02:08:58.422Z,34.00
2023-01-19T02:11:44.622Z,30.48
2023-01-19T02:14:11.721Z,32.33
2023-01-19T02:16:39.098Z,33.65
2023-01-19T02:19:09.170Z,30.17
2023-01-19T02:21:54.814Z,30.10
2023-01-19T02:24:22.771Z,33.50
2023-01-19T02:26:51.530Z,33.60
2023-01-19T02:29:21.630Z,29.73
2023-01-19T02:31:48.806Z,29.67
2023-01-19T02:34:18.269Z,31.90
2023-01-19T02:37:06.924Z,33.30
2023-01-19T02:39:51.868Z,31.73
2023-01-19T02:42:24.595Z,33.42
2023-01-19T02:44:54.667Z,33.78
2023-01-19T02:47:21.864Z,35.03
2023-01-19T02:49:59.403Z,31.00
2023-01-19T02:52:28.349Z,30.92
2023-01-19T02:54:58.019Z,32.15
2023-01-19T02:57:31.572Z,34.55
2023-01-19T03:00:34.055Z,32.28
2023-01-19T03:03:30.839Z,32.22
2023-01-19T03:06:15.752Z,34.35
2023-01-19T03:08:46.832Z,34.40
2023-01-19T03:11:14.942Z,33.75
2023-01-19T03:14:09.109Z,34.00
2023-01-19T03:16:39.336Z,34.33
2023-01-19T03:21:40.215Z,32.58
2023-01-19T03:24:09.572Z,34.58
2023-01-19T03:26:44.227Z,30.80
2023-01-19T03:29:14.314Z,32.15
2023-01-19T03:31:45.166Z,33.15
2023-01-19T03:34:15.348Z,30.88
2023-01-19T03:36:52.365Z,34.15
2023-01-19T03:39:24.575Z,31.83
2023-01-19T03:42:00.217Z,30.98
2023-01-19T03:44:29.431Z,29.92
2023-01-19T03:46:59.331Z,30.75
2023-01-19T03:49:27.172Z,30.63
2023-01-19T03:51:59.101Z,31.27
2023-01-19T03:54:27.316Z,29.98
2023-01-19T03:56:54.686Z,28.23
2023-01-19T03:59:22.123Z,29.67
2023-01-19T04:01:49.623Z,30.55
2023-01-19T04:04:16.851Z,33.03
2023-01-19T04:06:44.489Z,32.83
2023-01-19T04:09:11.819Z,35.53
2023-01-19T04:11:38.941Z,34.47
2023-01-19T04:14:06.123Z,33.90
2023-01-19T04:16:33.172Z,34.30
2023-01-19T04:19:00.241Z,33.58
2023-01-19T04:21:27.263Z,32.55
2023-01-19T04:23:54.301Z,33.25
2023-01-19T04:26:21.412Z,34.50
2023-01-19T04:28:48.648Z,31.50
2023-01-19T04:31:15.806Z,33.15
2023-01-19T04:33:42.876Z,36.55
2023-01-19T04:36:10.002Z,33.03
2023-01-19T04:38:37.211Z,34.13
2023-01-19T04:41:04.458Z,36.20
2023-01-19T04:43:31.565Z,35.85
2023-01-19T04:45:59.312Z,34.78
2023-01-19T04:48:26.477Z,36.78
2023-01-19T04:50:54.100Z,33.00
2023-01-19T04:53:21.187Z,32.20
2023-01-19T04:55:48.364Z,29.73
2023-01-19T04:58:15.969Z,30.08
2023-01-19T05:00:43.850Z,31.83
2023-01-19T05:03:11.046Z,30.02
2023-01-19T05:05:38.467Z,34.95
2023-01-19T05:08:05.738Z,32.75
2023-01-19T05:10:32.962Z,32.13
2023-01-19T05:13:00.255Z,31.73
2023-01-19T05:15:27.552Z,33.05
2023-01-19T05:17:54.727Z,35.42
2023-01-19T05:20:21.759Z,32.72
2023-01-19T05:22:50.843Z,33.90
2023-01-19T05:25:18.647Z,30.08
2023-01-19T05:27:46.160Z,29.73
2023-01-19T05:30:14.335Z,31.73
2023-01-19T05:32:41.494Z,31.08
2023-01-19T05:35:09.028Z,31.08
2023-01-19T05:37:36.291Z,28.83
2023-01-19T05:40:03.565Z,32.42
2023-01-19T05:42:32.672Z,32.20
2023-01-19T05:45:00.455Z,31.90
2023-01-19T05:47:30.162Z,33.60
2023-01-19T05:49:57.690Z,33.50
2023-01-19T05:52:27.798Z,31.27
2023-01-19T05:54:55.471Z,33.03
2023-01-19T05:57:22.743Z,31.27
2023-01-19T05:59:50.268Z,29.95
2023-01-19T06:02:17.443Z,30.48
2023-01-19T06:04:45.058Z,29.08
2023-01-19T06:07:12.126Z,27.73
2023-01-19T06:09:39.249Z,26.55
2023-01-19T06:12:06.743Z,27.08
2023-01-19T06:14:33.825Z,28.08
2023-01-19T06:17:00.910Z,28.83
2023-01-19T06:19:28.042Z,27.30
2023-01-19T06:21:55.080Z,28.05
2023-01-19T06:24:23.303Z,30.15
2023-01-19T06:26:50.461Z,30.00
2023-01-19T06:29:18.636Z,27.58
2023-01-19T06:31:45.846Z,29.50
2023-01-19T06:34:13.046Z,30.27
2023-01-19T06:36:40.284Z,28.67
2023-01-19T06:39:07.395Z,28.73
2023-01-19T06:41:34.784Z,29.40
2023-01-19T06:44:02.370Z,30.80
2023-01-19T06:46:30.044Z,28.48
2023-01-19T06:48:57.222Z,26.27
2023-01-19T06:51:24.651Z,26.90
2023-01-19T06:53:51.753Z,28.20
2023-01-19T06:56:19.033Z,29.30
2023-01-19T06:58:50.687Z,29.58
2023-01-19T07:01:18.064Z,30.08
2023-01-19T07:03:46.867Z,29.38
2023-01-19T07:06:14.122Z,28.60
2023-01-19T07:08:41.267Z,27.58
2023-01-19T07:11:24.922Z,27.52
2023-01-19T07:13:57.847Z,27.20
2023-01-19T07:16:25.313Z,28.25
2023-01-19T07:18:52.536Z,26.75
2023-01-19T07:21:19.663Z,27.27
2023-01-19T07:23:52.219Z,30.02
2023-01-19T07:26:21.641Z,32.30
2023-01-19T07:28:49.352Z,29.80
2023-01-19T07:31:16.936Z,29.73
2023-01-19T07:33:44.453Z,33.22
2023-01-19T07:36:12.312Z,30.63
2023-01-19T07:38:39.948Z,30.65
2023-01-19T07:41:09.440Z,30.77
2023-01-19T07:43:36.603Z,32.33
2023-01-19T07:46:05.924Z,30.13
2023-01-19T07:48:33.137Z,30.88
2023-01-19T07:51:01.745Z,28.98
2023-01-19T07:53:28.885Z,30.65
2023-01-19T07:55:57.261Z,30.77
2023-01-19T07:58:25.217Z,29.67
2023-01-19T08:00:52.914Z,29.70
2023-01-19T08:03:20.450Z,30.83
2023-01-19T08:05:51.948Z,26.90
2023-01-19T08:08:20.089Z,26.48
2023-01-19T08:10:50.639Z,26.60
2023-01-19T08:13:18.753Z,25.95
2023-01-19T08:15:49.725Z,28.83
2023-01-19T08:18:17.061Z,28.30
2023-01-19T08:20:44.324Z,27.83
2023-01-19T08:23:11.394Z,28.58
2023-01-19T08:25:44.553Z,25.80
2023-01-19T08:28:14.427Z,28.35
2023-01-19T08:30:44.108Z,25.50
2023-01-19T08:33:12.658Z,26.77
2023-01-19T08:35:43.950Z,29.02
2023-01-19T08:38:11.281Z,27.95
2023-01-19T08:40:40.470Z,27.90
2023-01-19T08:43:10.318Z,26.52
2023-01-19T08:45:41.705Z,27.67
2023-01-19T08:48:10.131Z,27.77
2023-01-19T08:50:37.257Z,28.10
2023-01-19T08:53:07.240Z,29.85
2023-01-19T08:55:36.520Z,28.98
2023-01-19T08:58:05.151Z,28.73
2023-01-19T09:00:38.150Z,29.30
2023-01-19T09:03:07.965Z,27.40
2023-01-19T09:05:38.935Z,24.90
2023-01-19T09:08:09.500Z,26.27
2023-01-19T09:10:38.267Z,29.35
2023-01-19T09:13:08.607Z,28.10
2023-01-19T09:15:38.071Z,26.80
2023-01-19T09:18:07.554Z,24.75
2023-01-19T09:20:36.359Z,25.67
2023-01-19T09:23:03.727Z,28.35
2023-01-19T09:25:31.467Z,27.63
2023-01-19T09:28:02.798Z,28.83
2023-01-19T09:30:30.196Z,27.90
2023-01-19T09:33:02.793Z,28.58
2023-01-19T09:35:31.793Z,28.40
2023-01-19T09:37:59.538Z,29.92
2023-01-19T09:40:28.184Z,30.38
2023-01-19T09:43:32.123Z,30.10
2023-01-19T09:46:01.753Z,27.70
2023-01-19T09:48:35.082Z,28.50
2023-01-19T09:51:07.882Z,30.55
2023-01-19T09:53:50.782Z,29.75
2023-01-19T09:56:20.409Z,29.90
2023-01-19T09:58:49.908Z,29.98
2023-01-19T10:01:38.209Z,30.92
2023-01-19T10:04:17.188Z,30.17
2023-01-19T10:06:44.439Z,27.35
2023-01-19T10:09:32.095Z,29.33
2023-01-19T10:12:35.989Z,27.33
2023-01-19T10:15:40.629Z,28.42
2023-01-19T10:18:31.645Z,31.25
2023-01-19T10:21:13.126Z,29.60
2023-01-19T10:23:58.444Z,28.75
2023-01-19T10:26:39.762Z,30.25
2023-01-19T10:29:34.648Z,28.70
2023-01-19T10:32:17.397Z,32.40
2023-01-19T10:34:44.597Z,32.70
2023-01-19T10:37:14.687Z,30.58
2023-01-19T10:39:43.012Z,33.17
2023-01-19T10:42:15.484Z,38.53
2023-01-19T10:44:43.393Z,38.58
2023-01-19T10:47:19.495Z,39.97
2023-01-19T10:49:48.485Z,39.33
2023-01-19T10:52:21.244Z,36.53
2023-01-19T10:54:48.855Z,37.15
2023-01-19T10:57:28.418Z,34.58
2023-01-19T10:59:55.798Z,37.33
2023-01-19T11:02:33.935Z,36.22
2023-01-19T11:05:22.361Z,36.97
2023-01-19T11:07:49.818Z,33.50
2023-01-19T11:10:17.643Z,34.13
2023-01-19T11:13:04.581Z,35.55
2023-01-19T11:15:33.306Z,36.10
2023-01-19T11:18:01.967Z,36.83
2023-01-19T11:20:47.344Z,36.05
2023-01-19T11:23:14.442Z,35.17
2023-01-19T11:25:49.173Z,36.95
2023-01-19T11:28:24.969Z,39.80
2023-01-19T11:31:01.599Z,39.53
2023-01-19T11:33:37.770Z,41.38
2023-01-19T11:36:07.847Z,41.22
2023-01-19T11:38:43.779Z,42.38
2023-01-19T11:41:31.087Z,40.45
2023-01-19T11:44:03.089Z,39.47
2023-01-19T11:46:34.680Z,41.42
2023-01-19T11:49:43.238Z,42.05
2023-01-19T11:52:45.131Z,42.97
2023-01-19T11:55:15.219Z,41.67
2023-01-19T11:57:52.398Z,41.05
2023-01-19T12:00:44.764Z,42.30
2023-01-19T12:03:11.878Z,37.55
2023-01-19T12:05:43.796Z,40.03
2023-01-19T12:08:27.164Z,41.03
2023-01-19T12:10:57.925Z,43.28
2023-01-19T12:13:27.459Z,41.58
2023-01-19T12:16:04.697Z,41.58
2023-01-19T12:18:41.578Z,39.95
2023-01-19T12:21:08.853Z,38.85
2023-01-19T12:24:04.107Z,39.67
2023-01-19T12:26:53.621Z,35.03
2023-01-19T12:29:22.763Z,32.50
2023-01-19T12:32:14.787Z,34.42
2023-01-19T12:34:49.590Z,35.40
2023-01-19T12:37:41.715Z,32.45
2023-01-19T12:40:31.465Z,34.22
2023-01-19T12:43:01.877Z,33.33
2023-01-19T12:45:34.389Z,34.28
2023-01-19T12:48:02.905Z,34.60
2023-01-19T12:50:37.935Z,43.40
2023-01-19T12:53:16.809Z,37.63
2023-01-19T12:55:46.968Z,36.53
2023-01-19T13:00:43.272Z,31.67
2023-01-19T13:03:39.767Z,30.47
2023-01-19T13:06:09.498Z,29.17
2023-01-19T13:08:59.508Z,30.60
2023-01-19T13:11:30.311Z,28.60
2023-01-19T13:13:59.796Z,25.65
2023-01-19T13:16:27.751Z,28.92
2023-01-19T13:19:10.202Z,28.98
2023-01-19T13:21:45.948Z,28.13
2023-01-19T13:24:25.104Z,23.55
2023-01-19T13:26:52.100Z,22.20
2023-01-19T13:29:34.092Z,21.10
2023-01-19T13:32:04.271Z,21.35
2023-01-19T13:37:04.700Z,26.95
2023-01-19T13:39:46.671Z,23.42
2023-01-19T13:42:21.366Z,31.60
2023-01-19T13:44:52.697Z,28.27
2023-01-19T13:47:24.098Z,30.65
2023-01-19T13:49:58.165Z,33.08
2023-01-19T13:52:29.982Z,27.80
2023-01-19T13:55:01.770Z,30.15
2023-01-19T13:57:33.951Z,24.65
2023-01-19T14:00:28.035Z,28.40
2023-01-19T14:03:23.957Z,25.70
2023-01-19T14:05:53.189Z,24.05
2023-01-19T14:08:21.565Z,24.58
2023-01-19T14:10:54.379Z,26.73
2023-01-19T14:13:26.488Z,23.55
2023-01-19T14:15:56.690Z,21.27
2023-01-19T14:21:08.022Z,22.67
2023-01-19T14:23:51.463Z,26.08
2023-01-19T14:26:40.176Z,21.05
2023-01-19T14:29:34.995Z,18.08
2023-01-19T14:32:02.016Z,19.13
2023-01-19T14:34:30.021Z,18.75
2023-01-19T14:36:57.330Z,19.77
2023-01-19T14:39:27.304Z,20.42
2023-01-19T14:41:57.677Z,18.55
2023-01-19T14:44:24.752Z,18.20
2023-01-19T14:46:51.970Z,18.35
2023-01-19T14:49:41.841Z,18.10
2023-01-19T14:52:23.822Z,18.73
2023-01-19T14:54:51.658Z,20.10
2023-01-19T14:57:18.756Z,17.30
2023-01-19T14:59:49.748Z,18.05
2023-01-19T15:02:19.377Z,18.85
2023-01-19T15:04:48.275Z,16.83
2023-01-19T15:07:19.570Z,17.38
2023-01-19T15:09:47.612Z,17.25
2023-01-19T15:12:17.527Z,18.63
2023-01-19T15:14:46.018Z,17.80
2023-01-19T15:17:18.329Z,20.45
2023-01-19T15:19:45.452Z,22.73
2023-01-19T15:22:13.689Z,21.50
2023-01-19T15:24:41.197Z,21.83
2023-01-19T15:27:12.293Z,19.38
2023-01-19T15:29:42.686Z,19.35
2023-01-19T15:32:14.396Z,19.40
2023-01-19T15:34:42.298Z,19.02
2023-01-19T15:37:09.715Z,25.60
2023-01-19T15:39:36.847Z,26.77
2023-01-19T15:42:04.127Z,27.58
2023-01-19T15:44:31.493Z,29.58
2023-01-19T15:46:58.947Z,27.08
2023-01-19T15:49:26.476Z,26.90
2023-01-19T15:51:53.727Z,27.40
2023-01-19T15:54:20.805Z,24.85
2023-01-19T15:56:48.028Z,23.67
2023-01-19T15:59:15.151Z,23.45
2023-01-19T16:01:42.403Z,25.40
2023-01-19T16:04:11.280Z,23.27
2023-01-19T16:06:38.452Z,23.75
2023-01-19T16:09:05.950Z,23.67
2023-01-19T16:11:35.222Z,23.00
2023-01-19T16:14:02.726Z,23.73
2023-01-19T16:16:30.171Z,22.45
2023-01-19T16:18:57.629Z,20.10
2023-01-19T16:21:25.398Z,21.38
2023-01-19T16:23:53.312Z,20.50
2023-01-19T16:26:25.544Z,19.17
2023-01-19T16:28:53.667Z,17.63
2023-01-19T16:31:20.953Z,17.30
2023-01-19T16:33:48.041Z,15.95
2023-01-19T16:36:22.759Z,16.13
2023-01-19T16:38:50.368Z,17.38
2023-01-19T16:41:18.056Z,17.27
2023-01-19T16:43:50.080Z,16.20
2023-01-19T16:46:20.204Z,17.83
2023-01-19T16:51:14.512Z,17.20
2023-01-19T16:53:41.756Z,16.83
2023-01-19T16:56:14.692Z,16.25
2023-01-19T16:58:42.726Z,17.40
2023-01-19T17:01:16.372Z,16.70
2023-01-19T17:03:44.531Z,17.73
2023-01-19T17:06:13.914Z,16.67
2023-01-19T17:08:41.555Z,17.10
2023-01-19T17:11:20.665Z,18.38
2023-01-19T17:14:02.890Z,16.45
2023-01-19T17:16:32.392Z,16.08
2023-01-19T17:19:01.624Z,16.15
2023-01-19T17:21:29.535Z,15.83
2023-01-19T17:23:57.730Z,16.95
2023-01-19T17:26:28.383Z,17.73
2023-01-19T17:29:02.751Z,15.65
2023-01-19T17:31:30.750Z,15.77
2023-01-19T17:33:58.592Z,15.23
2023-01-19T17:36:27.938Z,15.60
2023-01-19T17:38:57.706Z,14.40
2023-01-19T17:41:26.418Z,14.98
2023-01-19T17:43:55.005Z,16.30
2023-01-19T17:46:24.874Z,15.95
2023-01-19T17:48:56.455Z,15.20
2023-01-19T17:51:24.007Z,16.75
2023-01-19T17:53:52.684Z,14.82
2023-01-19T17:56:23.086Z,16.00
2023-01-19T17:58:50.411Z,13.05
2023-01-19T18:01:23.415Z,14.88
2023-01-19T18:03:50.905Z,15.77
2023-01-19T18:06:17.994Z,15.73
2023-01-19T18:08:48.674Z,15.77
2023-01-19T18:11:18.255Z,14.88
2023-01-19T18:13:46.871Z,15.60
2023-01-19T18:16:20.842Z,16.33
2023-01-19T18:18:49.955Z,16.33
2023-01-19T18:21:17.874Z,15.82
2023-01-19T18:23:46.044Z,17.55
2023-01-19T18:26:16.721Z,15.23
2023-01-19T18:28:43.779Z,15.63
2023-01-19T18:31:13.285Z,13.93
2023-01-19T18:33:41.236Z,12.85
2023-01-19T18:36:09.757Z,11.90
2023-01-19T18:38:36.946Z,11.65
2023-01-19T18:41:06.709Z,13.35
2023-01-19T18:43:34.206Z,10.43
2023-01-19T18:46:01.436Z,11.50
2023-01-19T18:48:28.693Z,11.98
2023-01-19T18:50:56.163Z,11.98
2023-01-19T18:53:23.983Z,13.93
2023-01-19T18:55:52.312Z,13.43
2023-01-19T18:58:20.402Z,15.05
2023-01-19T19:00:48.150Z,14.40
2023-01-19T19:03:15.317Z,13.82
2023-01-19T19:05:42.649Z,13.40
2023-01-19T19:08:10.090Z,14.68
2023-01-19T19:10:37.262Z,14.02
2023-01-19T19:13:04.441Z,14.82
2023-01-19T19:15:33.407Z,15.68
2023-01-19T19:18:00.731Z,14.43
2023-01-19T19:20:27.905Z,15.57
2023-01-19T19:22:56.170Z,15.65
2023-01-19T19:25:23.565Z,15.20
2023-01-19T19:27:51.934Z,15.73
2023-01-19T19:30:20.097Z,16.92
2023-01-19T19:32:54.615Z,16.70
2023-01-19T19:35:22.480Z,16.05
2023-01-19T19:37:49.878Z,17.30
2023-01-19T19:40:17.326Z,18.25
2023-01-19T19:42:44.328Z,17.95
2023-01-19T19:45:12.179Z,18.35
2023-01-19T19:47:39.225Z,19.48
2023-01-19T19:50:06.702Z,18.90
2023-01-19T19:52:39.632Z,19.67
2023-01-19T19:55:08.780Z,20.80
2023-01-19T19:57:36.295Z,23.10
2023-01-19T20:00:05.331Z,21.75
2023-01-19T20:02:37.040Z,19.20
2023-01-19T20:05:05.277Z,19.58
2023-01-19T20:07:33.121Z,20.90
2023-01-19T20:10:00.312Z,25.83
2023-01-19T20:12:27.864Z,23.50
2023-01-19T20:14:54.977Z,27.55
2023-01-19T20:17:23.416Z,25.60
2023-01-19T20:19:50.611Z,27.73
2023-01-19T20:22:17.895Z,27.05
2023-01-19T20:24:45.461Z,25.92
2023-01-19T20:27:12.590Z,26.55
2023-01-19T20:29:39.956Z,31.65
2023-01-19T20:32:08.155Z,31.45
2023-01-19T20:34:35.887Z,31.80
2023-01-19T20:37:04.881Z,30.65
2023-01-19T20:39:33.698Z,42.42
2023-01-19T20:42:01.741Z,40.38
2023-01-19T20:44:29.058Z,34.15
2023-01-19T20:46:56.876Z,30.75
2023-01-19T20:49:24.247Z,30.23
2023-01-19T20:52:06.586Z,26.52
2023-01-19T20:54:34.245Z,27.08
2023-01-19T20:57:01.406Z,26.80
2023-01-19T20:59:28.583Z,27.63
2023-01-19T21:01:55.912Z,27.55
2023-01-19T21:04:23.521Z,27.02
2023-01-19T21:06:50.652Z,29.67
2023-01-19T21:09:18.983Z,30.05
2023-01-19T21:11:46.045Z,28.92
2023-01-19T21:14:13.217Z,29.48
2023-01-19T21:16:42.701Z,29.52
2023-01-19T21:19:09.818Z,30.95
2023-01-19T21:21:37.020Z,30.70
2023-01-19T21:24:05.039Z,31.42
2023-01-19T21:26:33.752Z,30.83
2023-01-19T21:29:02.616Z,30.83
2023-01-19T21:31:30.517Z,29.60
2023-01-19T21:33:58.347Z,31.40
2023-01-19T21:36:26.076Z,30.00
2023-01-19T21:38:55.779Z,34.55
2023-01-19T21:41:22.890Z,34.22
2023-01-19T21:43:50.011Z,33.70
2023-01-19T21:46:20.061Z,32.85
2023-01-19T21:48:47.741Z,32.72
2023-01-19T21:51:15.635Z,32.42
2023-01-19T21:53:42.773Z,30.70
2023-01-19T21:56:11.161Z,30.48
2023-01-19T21:58:38.496Z,32.33
2023-01-19T22:01:11.086Z,33.63
2023-01-19T22:03:38.414Z,31.05
2023-01-19T22:06:07.234Z,28.67
2023-01-19T22:08:35.150Z,29.52
2023-01-19T22:11:07.236Z,31.50
2023-01-19T22:13:35.676Z,32.42
2023-01-19T22:16:04.673Z,30.25
2023-01-19T22:18:31.763Z,33.03
2023-01-19T22:21:11.644Z,32.95
2023-01-19T22:23:39.368Z,28.85
2023-01-19T22:26:07.758Z,30.83
2023-01-19T22:28:35.794Z,30.60
2023-01-19T22:31:12.399Z,28.48
2023-01-19T22:33:40.049Z,31.45
2023-01-19T22:36:13.630Z,28.15
2023-01-19T22:38:41.634Z,32.13
2023-01-19T22:41:42.280Z,30.23
2023-01-19T22:44:13.247Z,34.65
2023-01-19T22:46:40.457Z,28.23
2023-01-19T22:49:08.393Z,30.90
2023-01-19T22:51:35.999Z,29.55
2023-01-19T22:54:03.499Z,32.75
2023-01-19T22:56:33.018Z,30.45
2023-01-19T22:59:01.011Z,30.73
2023-01-19T23:01:30.317Z,32.35
2023-01-19T23:03:57.804Z,33.05
2023-01-19T23:06:30.100Z,31.65
2023-01-19T23:09:00.218Z,30.98
2023-01-19T23:11:34.272Z,29.98
2023-01-19T23:14:03.383Z,32.13
2023-01-19T23:16:30.523Z,30.50
2023-01-19T23:18:58.715Z,32.10
2023-01-19T23:21:28.927Z,30.08
2023-01-19T23:23:59.038Z,31.45
2023-01-19T23:26:26.648Z,28.25
2023-01-19T23:28:59.315Z,31.02
2023-01-19T23:31:27.764Z,29.60
2023-01-19T23:33:57.503Z,27.95
2023-01-19T23:36:27.528Z,29.90
2023-01-19T23:39:04.435Z,29.42
2023-01-19T23:41:34.693Z,28.40
2023-01-19T23:46:30.235Z,29.15
2023-01-19T23:48:57.463Z,31.80
2023-01-19T23:51:27.320Z,30.88
2023-01-19T23:53:54.921Z,28.70
2023-01-19T23:56:23.164Z,30.50
2023-01-19T23:58:57.164Z,28.77
